Terminal Aerodrome Forecast
Issued by NWS

Home | Current Version | Previous Version | Text Only | Print | Product List | Glossary On
Versions: 1 2 3 4 5 6 7 8 9 10 11 12
269
FTUS45 KABQ 191731
TAFSAF
TAF
KSAF 191731Z 1918/2018 24016G22KT P6SM BKN060
     FM191900 21021G31KT P6SM BKN070
     FM192100 22030G38KT P6SM BKN080
     FM200400 23021G31KT P6SM VCSH OVC050
     FM200700 30014KT P6SM OVC050
      TEMPO 2007/2011 3SM -SN OVC025=

USA.gov is the U.S. government's official web portal to all federal, state and local government web resources and services.